Weather at RAF Skaebrae Air Base [CLOSED]

Public forecast

Using degrees Celsius for public forecast. Weather courtesy of forecast.io.

Closest aviation weather report (METAR) to RAF Skaebrae Air Base

Closest report is Kirkwall Airport, 12.9 nm (24.0 km) ESE.

2024/07/17 12:50 (retrieved 11 minutes ago)

EGPA 171250Z 25007KT 220V290 9999 FEW016 BKN027 15/10 Q1016

Closest aviation forecast (TAF) to RAF Skaebrae Air Base

Closest forecast is RAF Lossiemouth, 81.6 nm (151.1 km) S.

2024/07/17 12:45 (retrieved 16 minutes ago)

TAF TAF EGQS 171039Z 1712/1806 26012KT 9999 FEW045